createdAt,value
2023-03-02T00:02:01.984Z,6.80
2023-03-02T00:04:47.344Z,6.50
2023-03-02T00:07:20.090Z,5.80
2023-03-02T00:09:49.139Z,6.20
2023-03-02T00:12:17.131Z,6.20
2023-03-02T00:14:45.169Z,6.10
2023-03-02T00:17:13.470Z,6.70
2023-03-02T00:19:42.132Z,5.60
2023-03-02T00:22:11.270Z,5.40
2023-03-02T00:24:39.428Z,6.00
2023-03-02T00:27:07.468Z,6.00
2023-03-02T00:29:35.637Z,5.70
2023-03-02T00:32:07.154Z,5.70
2023-03-02T00:34:35.312Z,5.10
2023-03-02T00:37:03.306Z,5.70
2023-03-02T00:39:33.478Z,5.40
2023-03-02T00:42:01.785Z,5.90
2023-03-02T00:44:30.655Z,5.70
2023-03-02T00:46:58.793Z,5.70
2023-03-02T00:49:26.966Z,5.50
2023-03-02T00:51:58.874Z,5.80
2023-03-02T00:54:28.490Z,5.20
2023-03-02T00:56:56.794Z,5.60
2023-03-02T00:59:28.137Z,5.90
2023-03-02T01:02:17.366Z,5.40
2023-03-02T01:04:46.535Z,5.10
2023-03-02T01:07:17.217Z,6.10
2023-03-02T01:09:45.691Z,5.80
2023-03-02T01:12:16.096Z,5.70
2023-03-02T01:14:46.789Z,5.30
2023-03-02T01:17:15.066Z,5.60
2023-03-02T01:19:44.547Z,5.20
2023-03-02T01:22:12.914Z,6.10
2023-03-02T01:24:44.609Z,6.10
2023-03-02T01:27:13.218Z,5.50
2023-03-02T01:29:41.648Z,5.80
2023-03-02T01:32:09.772Z,5.40
2023-03-02T01:34:37.893Z,5.10
2023-03-02T01:37:06.490Z,6.00
2023-03-02T01:39:34.716Z,5.00
2023-03-02T01:42:07.061Z,5.00
2023-03-02T01:44:49.172Z,5.00
2023-03-02T01:47:44.334Z,5.20
2023-03-02T01:50:24.878Z,5.60
2023-03-02T01:52:56.010Z,5.20
2023-03-02T01:55:25.769Z,5.20
2023-03-02T01:57:54.284Z,5.80
2023-03-02T02:00:25.450Z,5.10
2023-03-02T02:02:54.100Z,5.00
2023-03-02T02:05:24.390Z,4.70
2023-03-02T02:07:54.171Z,4.60
2023-03-02T02:10:23.131Z,5.10
2023-03-02T02:12:51.490Z,5.00
2023-03-02T02:15:19.642Z,5.40
2023-03-02T02:17:50.318Z,5.50
2023-03-02T02:20:24.556Z,4.90
2023-03-02T02:23:06.874Z,5.10
2023-03-02T02:25:45.908Z,5.10
2023-03-02T02:28:21.438Z,5.20
2023-03-02T02:30:51.784Z,5.10
2023-03-02T02:33:21.529Z,5.10
2023-03-02T02:35:49.773Z,5.00
2023-03-02T02:38:19.554Z,5.70
2023-03-02T02:40:53.566Z,5.50
2023-03-02T02:43:27.061Z,5.40
2023-03-02T02:45:57.270Z,5.10
2023-03-02T02:48:31.246Z,6.20
2023-03-02T02:51:03.475Z,5.20
2023-03-02T02:53:59.202Z,4.20
2023-03-02T02:56:37.406Z,5.30
2023-03-02T02:59:10.426Z,5.30
2023-03-02T03:01:39.049Z,5.50
2023-03-02T03:04:07.516Z,5.40
2023-03-02T03:06:42.720Z,5.50
2023-03-02T03:09:12.901Z,6.00
2023-03-02T03:11:57.368Z,5.30
2023-03-02T03:14:39.810Z,5.30
2023-03-02T03:17:12.464Z,5.50
2023-03-02T03:19:46.814Z,5.60
2023-03-02T03:22:15.914Z,5.20
2023-03-02T03:24:45.394Z,5.50
2023-03-02T03:27:15.694Z,5.50
2023-03-02T03:29:48.493Z,6.00
2023-03-02T03:32:19.491Z,6.00
2023-03-02T03:34:51.547Z,4.90
2023-03-02T03:37:24.211Z,5.90
2023-03-02T03:39:53.414Z,5.80
2023-03-02T03:42:24.349Z,5.00
2023-03-02T03:44:52.894Z,5.50
2023-03-02T03:47:23.009Z,5.60
2023-03-02T03:49:51.984Z,5.50
2023-03-02T03:52:30.462Z,5.20
2023-03-02T03:55:03.896Z,5.50
2023-03-02T03:57:33.460Z,5.50
2023-03-02T04:00:01.743Z,6.10
2023-03-02T04:02:32.612Z,5.30
2023-03-02T04:05:07.265Z,5.70
2023-03-02T04:07:41.164Z,5.30
2023-03-02T04:10:12.517Z,5.70
2023-03-02T04:12:42.353Z,5.30
2023-03-02T04:15:14.644Z,5.30
2023-03-02T04:17:45.054Z,5.80
2023-03-02T04:20:19.832Z,6.70
2023-03-02T04:22:51.612Z,7.60
2023-03-02T04:25:26.460Z,7.80
2023-03-02T04:27:59.003Z,7.60
2023-03-02T04:30:30.770Z,7.10
2023-03-02T04:32:59.701Z,7.90
2023-03-02T04:35:30.091Z,10.40
2023-03-02T04:37:59.243Z,10.00
2023-03-02T04:40:27.782Z,8.40
2023-03-02T04:42:56.345Z,7.50
2023-03-02T04:45:25.074Z,6.00
2023-03-02T04:47:54.739Z,7.00
2023-03-02T04:50:26.414Z,10.50
2023-03-02T04:52:54.577Z,9.50
2023-03-02T04:55:24.899Z,9.30
2023-03-02T04:57:53.561Z,7.80
2023-03-02T05:00:22.127Z,7.50
2023-03-02T05:02:53.353Z,7.70
2023-03-02T05:05:23.728Z,6.60
2023-03-02T05:07:52.919Z,7.00
2023-03-02T05:10:22.631Z,6.90
2023-03-02T05:12:58.710Z,6.90
2023-03-02T05:15:29.193Z,6.60
2023-03-02T05:17:59.078Z,6.90
2023-03-02T05:20:30.457Z,7.50
2023-03-02T05:23:01.822Z,6.90
2023-03-02T05:25:37.663Z,7.10
2023-03-02T05:28:07.022Z,6.70
2023-03-02T05:30:38.114Z,6.60
2023-03-02T05:33:06.637Z,7.10
2023-03-02T05:35:35.089Z,6.20
2023-03-02T05:38:03.449Z,6.40
2023-03-02T05:40:32.513Z,6.20
2023-03-02T05:43:01.098Z,6.50
2023-03-02T05:45:32.724Z,7.10
2023-03-02T05:48:01.917Z,6.70
2023-03-02T05:50:30.369Z,7.50
2023-03-02T05:53:00.369Z,6.40
2023-03-02T05:55:29.060Z,6.90
2023-03-02T05:57:57.448Z,6.50
2023-03-02T06:00:26.697Z,6.90
2023-03-02T06:02:55.963Z,6.10
2023-03-02T06:05:24.768Z,6.50
2023-03-02T06:07:58.726Z,6.40
2023-03-02T06:10:27.023Z,6.00
2023-03-02T06:12:55.691Z,6.50
2023-03-02T06:15:24.047Z,6.40
2023-03-02T06:17:52.306Z,6.40
2023-03-02T06:20:20.518Z,7.40
2023-03-02T06:22:49.209Z,6.00
2023-03-02T06:25:22.575Z,6.60
2023-03-02T06:27:51.803Z,6.70
2023-03-02T06:30:23.531Z,6.00
2023-03-02T06:32:51.968Z,6.90
2023-03-02T06:35:20.777Z,6.50
2023-03-02T06:37:49.057Z,6.40
2023-03-02T06:40:18.696Z,6.80
2023-03-02T06:42:47.194Z,6.00
2023-03-02T06:45:17.584Z,7.30
2023-03-02T06:47:45.738Z,6.60
2023-03-02T06:50:17.683Z,9.90
2023-03-02T06:52:46.390Z,12.40
2023-03-02T06:55:15.121Z,9.50
2023-03-02T06:57:44.257Z,7.80
2023-03-02T07:00:17.151Z,7.10
2023-03-02T07:02:50.079Z,6.40
2023-03-02T07:05:19.621Z,6.70
2023-03-02T07:07:49.904Z,9.20
2023-03-02T07:10:20.983Z,7.10
2023-03-02T07:12:49.325Z,7.50
2023-03-02T07:15:22.434Z,7.30
2023-03-02T07:17:50.871Z,6.90
2023-03-02T07:20:19.475Z,6.80
2023-03-02T07:22:49.665Z,6.70
2023-03-02T07:25:18.100Z,6.40
2023-03-02T07:27:49.583Z,6.30
2023-03-02T07:30:21.437Z,6.80
2023-03-02T07:32:49.680Z,7.60
2023-03-02T07:35:18.333Z,7.60
2023-03-02T07:37:47.921Z,7.70
2023-03-02T07:40:16.374Z,8.90
2023-03-02T07:42:48.286Z,7.00
2023-03-02T07:45:25.076Z,7.70
2023-03-02T07:47:54.038Z,7.30
2023-03-02T07:50:22.522Z,7.30
2023-03-02T07:52:50.793Z,6.50
2023-03-02T07:55:19.123Z,6.50
2023-03-02T07:57:47.370Z,6.60
2023-03-02T08:00:16.404Z,7.30
2023-03-02T08:02:45.112Z,6.50
2023-03-02T08:05:13.631Z,6.70
2023-03-02T08:07:42.796Z,5.90
2023-03-02T08:10:12.131Z,5.90
2023-03-02T08:12:40.774Z,6.60
2023-03-02T08:15:09.736Z,5.60
2023-03-02T08:17:38.713Z,6.10
2023-03-02T08:20:09.371Z,6.20
2023-03-02T08:22:38.058Z,6.20
2023-03-02T08:25:07.847Z,6.00
2023-03-02T08:27:38.287Z,6.10
2023-03-02T08:30:07.473Z,5.40
2023-03-02T08:32:36.123Z,6.20
2023-03-02T08:35:05.086Z,5.60
2023-03-02T08:37:34.620Z,6.10
2023-03-02T08:40:04.252Z,6.10
2023-03-02T08:42:33.306Z,5.80
2023-03-02T08:45:06.865Z,6.60
2023-03-02T08:47:35.797Z,6.30
2023-03-02T08:50:06.219Z,5.50
2023-03-02T08:52:35.205Z,5.60
2023-03-02T08:55:04.636Z,5.70
2023-03-02T08:57:35.329Z,4.80
2023-03-02T09:00:08.991Z,6.00
2023-03-02T09:02:43.993Z,5.50
2023-03-02T09:08:29.201Z,5.10
2023-03-02T09:11:01.255Z,5.10
2023-03-02T09:13:30.736Z,4.50
2023-03-02T09:15:59.387Z,5.30
2023-03-02T09:18:30.842Z,4.80
2023-03-02T09:20:59.595Z,7.30
2023-03-02T09:23:28.991Z,11.20
2023-03-02T09:25:58.884Z,8.60
2023-03-02T09:28:27.633Z,7.30
2023-03-02T09:31:01.753Z,10.00
2023-03-02T09:33:32.653Z,7.80
2023-03-02T09:36:06.266Z,5.80
2023-03-02T09:38:35.178Z,6.10
2023-03-02T09:41:10.736Z,6.30
2023-03-02T09:44:03.581Z,5.30
2023-03-02T09:46:51.962Z,5.70
2023-03-02T09:49:38.717Z,5.10
2023-03-02T09:52:28.921Z,4.80
2023-03-02T09:55:01.822Z,5.10
2023-03-02T09:57:35.313Z,4.60
2023-03-02T10:03:02.407Z,4.20
2023-03-02T10:05:38.819Z,4.70
2023-03-02T10:08:23.628Z,4.90
2023-03-02T10:10:54.696Z,5.00
2023-03-02T10:13:27.169Z,5.50
2023-03-02T10:15:58.306Z,4.70
2023-03-02T10:18:42.971Z,5.30
2023-03-02T10:21:51.847Z,5.00
2023-03-02T10:24:38.656Z,6.40
2023-03-02T10:27:43.462Z,5.10
2023-03-02T10:30:25.693Z,6.40
2023-03-02T10:32:56.078Z,5.20
2023-03-02T10:35:26.125Z,5.50
2023-03-02T10:38:00.360Z,5.30
2023-03-02T10:41:06.739Z,5.50
2023-03-02T10:43:45.296Z,5.20
2023-03-02T10:46:14.393Z,4.80
2023-03-02T10:48:50.546Z,4.70
2023-03-02T10:51:28.461Z,4.80
2023-03-02T10:54:13.752Z,4.80
2023-03-02T10:56:42.944Z,4.90
2023-03-02T10:59:27.377Z,5.20
2023-03-02T11:02:03.110Z,5.70
2023-03-02T11:04:58.406Z,5.10
2023-03-02T11:07:28.915Z,4.80
2023-03-02T11:10:05.527Z,4.30
2023-03-02T11:12:36.356Z,4.80
2023-03-02T11:15:23.504Z,4.20
2023-03-02T11:18:02.779Z,4.50
2023-03-02T11:20:34.776Z,4.40
2023-03-02T11:23:30.102Z,5.00
2023-03-02T11:26:20.878Z,4.80
2023-03-02T11:28:52.369Z,4.60
2023-03-02T11:31:44.678Z,4.60
2023-03-02T11:34:38.134Z,4.90
2023-03-02T11:37:25.020Z,4.10
2023-03-02T11:40:00.386Z,4.40
2023-03-02T11:42:31.415Z,4.50
2023-03-02T11:45:15.605Z,6.00
2023-03-02T11:48:08.434Z,7.30
2023-03-02T11:51:07.112Z,4.70
2023-03-02T11:53:42.593Z,6.70
2023-03-02T11:56:10.962Z,7.10
2023-03-02T11:58:43.001Z,6.60
2023-03-02T12:01:15.812Z,5.00
2023-03-02T12:06:25.391Z,6.10
2023-03-02T12:08:56.089Z,5.60
2023-03-02T12:11:34.304Z,5.00
2023-03-02T12:14:27.153Z,5.10
2023-03-02T12:17:25.052Z,4.80
2023-03-02T12:20:14.687Z,4.40
2023-03-02T12:22:43.557Z,4.60
2023-03-02T12:25:21.487Z,4.60
2023-03-02T12:27:53.001Z,4.30
2023-03-02T12:30:26.939Z,4.70
2023-03-02T12:33:15.944Z,4.20
2023-03-02T12:35:44.935Z,4.10
2023-03-02T12:38:29.746Z,4.60
2023-03-02T12:41:29.937Z,4.80
2023-03-02T12:44:20.522Z,5.00
2023-03-02T12:46:49.616Z,4.60
2023-03-02T12:49:55.946Z,4.50
2023-03-02T12:52:28.987Z,5.00
2023-03-02T12:55:01.061Z,5.00
2023-03-02T13:49:11.440Z,4.20
2023-03-02T13:53:07.157Z,4.20
2023-03-02T13:56:56.376Z,4.10
2023-03-02T14:00:47.091Z,4.50
2023-03-02T14:04:36.350Z,4.00
2023-03-02T14:08:25.829Z,3.90
2023-03-02T14:12:15.214Z,3.90
2023-03-02T14:16:18.801Z,3.80
2023-03-02T14:20:15.093Z,4.00
2023-03-02T14:24:04.594Z,3.80
2023-03-02T14:27:52.552Z,4.10
2023-03-02T14:31:42.362Z,3.90
2023-03-02T14:35:31.834Z,3.90
2023-03-02T14:39:21.122Z,4.00
2023-03-02T14:43:14.804Z,3.60
2023-03-02T14:47:05.706Z,3.50
2023-03-02T14:50:55.276Z,3.40
2023-03-02T14:54:44.809Z,4.10
2023-03-02T14:58:43.962Z,4.10
2023-03-02T15:02:37.506Z,4.40
2023-03-02T15:06:27.026Z,4.30
2023-03-02T15:10:17.163Z,3.80
2023-03-02T15:14:11.463Z,4.70
2023-03-02T15:18:00.898Z,4.50
2023-03-02T15:21:58.217Z,4.40
2023-03-02T15:25:47.538Z,4.30
2023-03-02T15:29:38.107Z,4.70
2023-03-02T15:33:27.340Z,4.90
2023-03-02T15:37:17.387Z,4.90
2023-03-02T15:41:07.248Z,5.40
2023-03-02T15:44:57.029Z,6.20
2023-03-02T15:48:49.381Z,6.00
2023-03-02T15:52:38.358Z,8.30
2023-03-02T15:56:47.418Z,7.80
2023-03-02T16:00:36.970Z,7.20
2023-03-02T16:04:53.717Z,8.70
2023-03-02T16:09:04.742Z,11.40
2023-03-02T16:13:00.571Z,8.90
2023-03-02T16:16:53.508Z,10.00
2023-03-02T16:20:53.186Z,9.30
2023-03-02T16:24:43.074Z,8.10
2023-03-02T16:28:33.842Z,8.60
2023-03-02T16:32:23.217Z,8.50
2023-03-02T16:36:13.312Z,8.40
2023-03-02T16:40:03.011Z,8.70
2023-03-02T16:43:45.297Z,10.30
2023-03-02T16:47:34.941Z,11.10
2023-03-02T16:51:24.228Z,16.50
2023-03-02T16:55:13.599Z,18.60
2023-03-02T16:59:02.574Z,13.90
2023-03-02T17:02:53.863Z,12.20
2023-03-02T17:07:03.406Z,9.90
2023-03-02T17:10:54.052Z,7.00
2023-03-02T17:14:44.237Z,6.10
2023-03-02T17:23:18.046Z,7.40
2023-03-02T17:27:31.016Z,6.50
2023-03-02T17:31:31.676Z,7.00
2023-03-02T17:40:35.781Z,6.20
2023-03-02T17:44:25.082Z,6.10
2023-03-02T17:52:49.620Z,6.00
2023-03-02T18:01:36.760Z,6.60
2023-03-02T18:05:26.096Z,6.10
2023-03-02T18:09:18.966Z,6.80
2023-03-02T18:13:21.812Z,7.10
2023-03-02T18:21:45.290Z,7.00
2023-03-02T18:25:34.905Z,7.40
2023-03-02T18:38:41.132Z,7.50
2023-03-02T18:42:31.779Z,7.20
2023-03-02T18:46:16.828Z,7.40
2023-03-02T18:50:11.179Z,8.60
2023-03-02T18:54:01.185Z,8.90
2023-03-02T18:57:50.379Z,10.30
2023-03-02T19:06:12.032Z,13.90
2023-03-02T19:36:19.865Z,9.90
2023-03-02T19:49:11.099Z,8.60
2023-03-02T19:52:58.965Z,8.40
2023-03-02T19:57:35.827Z,9.20
2023-03-02T20:00:58.422Z,9.30
2023-03-02T20:04:47.662Z,9.30
2023-03-02T20:08:33.775Z,10.00
2023-03-02T20:12:28.030Z,12.50
2023-03-02T20:21:33.447Z,14.50
2023-03-02T20:25:23.520Z,15.40
2023-03-02T20:29:20.405Z,15.80
2023-03-02T20:33:10.672Z,16.00
2023-03-02T20:37:03.302Z,19.40
2023-03-02T20:40:52.706Z,21.00
2023-03-02T20:44:42.311Z,23.10
2023-03-02T20:48:32.173Z,24.00
2023-03-02T20:52:25.674Z,27.30
2023-03-02T20:56:16.206Z,24.60
2023-03-02T21:00:29.458Z,23.90
2023-03-02T21:08:53.350Z,23.00
2023-03-02T21:21:50.031Z,30.70
2023-03-02T21:43:43.916Z,41.80
2023-03-02T21:47:36.846Z,41.30
2023-03-02T22:13:57.698Z,25.60
2023-03-02T22:17:52.688Z,25.90
2023-03-02T22:21:42.651Z,28.90
2023-03-02T22:52:53.329Z,30.20
2023-03-02T23:19:59.466Z,27.40
2023-03-02T23:23:47.303Z,31.00
2023-03-02T23:27:36.599Z,29.50
2023-03-02T23:36:11.071Z,44.00
2023-03-02T23:40:00.313Z,46.90
2023-03-02T23:43:49.700Z,46.50
2023-03-02T23:52:18.031Z,42.90
2023-03-02T23:56:14.366Z,39.20
